createdAt,value
2023-04-15T00:01:00.074Z,5.90
2023-04-15T00:03:28.677Z,5.90
2023-04-15T00:05:57.493Z,5.57
2023-04-15T00:08:25.902Z,5.27
2023-04-15T00:10:54.721Z,5.80
2023-04-15T00:13:23.107Z,5.57
2023-04-15T00:15:52.126Z,5.87
2023-04-15T00:18:21.824Z,5.30
2023-04-15T00:20:50.082Z,5.90
2023-04-15T00:23:18.526Z,5.53
2023-04-15T00:25:46.961Z,5.47
2023-04-15T00:28:15.335Z,5.90
2023-04-15T00:30:44.228Z,5.35
2023-04-15T00:33:13.704Z,5.93
2023-04-15T00:35:43.474Z,6.45
2023-04-15T00:38:11.788Z,6.00
2023-04-15T00:40:41.262Z,6.38
2023-04-15T00:43:09.572Z,6.00
2023-04-15T00:45:38.339Z,5.93
2023-04-15T00:48:07.258Z,7.10
2023-04-15T00:50:35.594Z,6.10
2023-04-15T00:53:06.098Z,6.43
2023-04-15T00:55:34.492Z,6.90
2023-04-15T00:58:02.896Z,6.80
2023-04-15T01:00:32.013Z,7.50
2023-04-15T01:03:00.511Z,7.60
2023-04-15T01:05:30.164Z,8.03
2023-04-15T01:07:58.739Z,7.27
2023-04-15T01:10:28.497Z,7.33
2023-04-15T01:12:56.904Z,7.40
2023-04-15T01:15:27.490Z,7.97
2023-04-15T01:17:56.103Z,8.32
2023-04-15T01:20:24.537Z,8.07
2023-04-15T01:22:52.979Z,7.87
2023-04-15T01:25:32.102Z,7.73
2023-04-15T01:28:00.799Z,8.77
2023-04-15T01:30:29.195Z,8.20
2023-04-15T01:32:57.565Z,9.07
2023-04-15T01:35:45.113Z,8.23
2023-04-15T01:38:13.949Z,9.05
2023-04-15T01:40:43.655Z,8.50
2023-04-15T01:43:11.985Z,8.55
2023-04-15T01:45:40.758Z,8.50
2023-04-15T01:48:09.835Z,9.63
2023-04-15T01:50:39.766Z,8.35
2023-04-15T01:53:08.523Z,9.00
2023-04-15T01:55:36.963Z,8.93
2023-04-15T01:58:06.816Z,9.25
2023-04-15T02:00:35.381Z,9.13
2023-04-15T02:03:04.082Z,9.48
2023-04-15T02:05:32.777Z,9.63
2023-04-15T02:08:01.114Z,10.10
2023-04-15T02:10:29.471Z,9.60
2023-04-15T02:12:58.090Z,9.98
2023-04-15T02:15:30.609Z,9.55
2023-04-15T02:18:00.799Z,9.13
2023-04-15T02:20:30.657Z,9.07
2023-04-15T02:22:59.862Z,9.63
2023-04-15T02:25:28.141Z,9.67
2023-04-15T02:27:59.066Z,9.37
2023-04-15T02:30:27.385Z,9.23
2023-04-15T02:32:57.046Z,10.17
2023-04-15T02:35:27.209Z,9.20
2023-04-15T02:37:56.526Z,9.97
2023-04-15T02:40:24.993Z,9.73
2023-04-15T02:42:53.362Z,9.73
2023-04-15T02:45:24.118Z,9.50
2023-04-15T02:47:52.650Z,9.27
2023-04-15T02:50:23.589Z,10.35
2023-04-15T02:52:52.427Z,10.20
2023-04-15T02:55:21.043Z,10.57
2023-04-15T02:57:49.509Z,9.97
2023-04-15T03:00:18.153Z,10.70
2023-04-15T03:02:52.280Z,10.70
2023-04-15T03:05:23.545Z,10.60
2023-04-15T03:07:52.862Z,10.83
2023-04-15T03:10:22.536Z,11.43
2023-04-15T03:12:50.988Z,10.53
2023-04-15T03:15:21.427Z,11.37
2023-04-15T03:17:52.813Z,11.77
2023-04-15T03:20:22.740Z,11.40
2023-04-15T03:22:51.097Z,12.07
2023-04-15T03:25:21.527Z,12.40
2023-04-15T03:27:49.904Z,11.83
2023-04-15T03:30:18.963Z,11.33
2023-04-15T03:32:47.811Z,11.70
2023-04-15T03:35:17.103Z,12.93
2023-04-15T03:37:49.036Z,12.33
2023-04-15T03:40:17.399Z,12.93
2023-04-15T03:42:45.956Z,12.97
2023-04-15T03:45:14.274Z,13.50
2023-04-15T03:47:42.783Z,14.53
2023-04-15T03:50:11.757Z,15.10
2023-04-15T03:52:40.214Z,15.50
2023-04-15T03:55:10.858Z,15.73
2023-04-15T03:57:39.700Z,14.03
2023-04-15T04:00:10.546Z,16.03
2023-04-15T04:02:41.885Z,17.33
2023-04-15T04:05:10.766Z,16.43
2023-04-15T04:07:39.158Z,17.07
2023-04-15T04:10:10.341Z,17.67
2023-04-15T04:12:38.608Z,17.33
2023-04-15T04:15:08.400Z,17.05
2023-04-15T04:17:36.803Z,17.00
2023-04-15T04:20:05.702Z,17.80
2023-04-15T04:22:40.376Z,18.70
2023-04-15T04:25:11.477Z,19.38
2023-04-15T04:27:39.849Z,18.90
2023-04-15T04:30:09.872Z,18.57
2023-04-15T04:32:38.155Z,17.90
2023-04-15T04:35:07.302Z,19.00
2023-04-15T04:37:35.654Z,19.23
2023-04-15T04:40:04.624Z,20.27
2023-04-15T04:42:34.449Z,19.77
2023-04-15T04:45:02.828Z,19.73
2023-04-15T04:47:31.660Z,21.90
2023-04-15T04:49:59.958Z,21.63
2023-04-15T04:52:28.223Z,22.57
2023-04-15T04:54:56.481Z,21.60
2023-04-15T04:57:24.925Z,22.70
2023-04-15T04:59:54.596Z,23.43
2023-04-15T05:02:23.188Z,24.23
2023-04-15T05:04:54.385Z,22.87
2023-04-15T05:07:22.784Z,22.93
2023-04-15T05:09:51.097Z,24.40
2023-04-15T05:12:19.506Z,25.17
2023-04-15T05:14:47.836Z,25.63
2023-04-15T05:17:17.449Z,24.73
2023-04-15T05:19:45.753Z,24.97
2023-04-15T05:22:14.014Z,26.17
2023-04-15T05:24:42.311Z,25.83
2023-04-15T05:27:11.566Z,28.03
2023-04-15T05:29:39.889Z,26.37
2023-04-15T05:32:08.531Z,27.77
2023-04-15T05:34:38.274Z,27.83
2023-04-15T05:37:06.677Z,29.43
2023-04-15T05:39:35.049Z,29.43
2023-04-15T05:42:03.472Z,27.23
2023-04-15T05:44:31.838Z,29.80
2023-04-15T05:47:00.156Z,28.50
2023-04-15T05:49:28.445Z,29.60
2023-04-15T05:51:58.298Z,29.10
2023-04-15T05:54:27.823Z,28.63
2023-04-15T05:56:56.410Z,28.03
2023-04-15T05:59:24.883Z,29.10
2023-04-15T06:01:53.584Z,29.63
2023-04-15T06:04:22.823Z,30.43
2023-04-15T06:06:51.293Z,29.20
2023-04-15T06:09:21.055Z,29.83
2023-04-15T06:11:49.347Z,29.37
2023-04-15T06:14:17.678Z,31.87
2023-04-15T06:16:46.032Z,32.50
2023-04-15T06:19:14.886Z,31.10
2023-04-15T06:21:43.411Z,32.40
2023-04-15T06:24:12.550Z,33.03
2023-04-15T06:26:42.188Z,33.57
2023-04-15T06:29:10.524Z,34.17
2023-04-15T06:31:38.927Z,35.17
2023-04-15T06:34:07.487Z,34.73
2023-04-15T06:36:35.847Z,35.57
2023-04-15T06:39:04.404Z,35.07
2023-04-15T06:41:32.978Z,33.93
2023-04-15T06:44:02.901Z,35.60
2023-04-15T06:46:31.223Z,34.35
2023-04-15T06:48:59.706Z,38.07
2023-04-15T06:51:28.296Z,39.07
2023-04-15T06:53:56.872Z,37.53
2023-04-15T06:56:25.464Z,37.92
2023-04-15T06:58:53.852Z,37.60
2023-04-15T07:01:23.810Z,38.47
2023-04-15T07:03:52.436Z,40.40
2023-04-15T07:06:21.870Z,40.33
2023-04-15T07:08:50.320Z,41.28
2023-04-15T07:11:18.793Z,42.83
2023-04-15T07:13:47.093Z,43.20
2023-04-15T07:16:15.558Z,41.07
2023-04-15T07:18:45.465Z,42.22
2023-04-15T07:21:13.836Z,45.07
2023-04-15T07:23:43.254Z,43.20
2023-04-15T07:26:12.227Z,41.35
2023-04-15T07:28:40.540Z,44.70
2023-04-15T07:31:08.864Z,44.30
2023-04-15T07:33:37.336Z,45.30
2023-04-15T07:36:07.536Z,44.97
2023-04-15T07:38:35.894Z,44.43
2023-04-15T07:41:04.910Z,46.92
2023-04-15T07:43:33.334Z,45.35
2023-04-15T07:46:01.940Z,43.60
2023-04-15T07:48:30.775Z,46.23
2023-04-15T07:51:00.387Z,45.30
2023-04-15T07:53:30.441Z,44.23
2023-04-15T07:55:58.783Z,45.20
2023-04-15T07:58:28.437Z,46.47
2023-04-15T08:00:57.077Z,45.30
2023-04-15T08:03:26.646Z,46.97
2023-04-15T08:05:55.366Z,45.25
2023-04-15T08:08:23.631Z,47.42
2023-04-15T08:10:53.662Z,46.70
2023-04-15T08:13:22.323Z,47.20
2023-04-15T08:16:21.562Z,47.65
2023-04-15T08:18:52.114Z,45.13
2023-04-15T08:21:21.322Z,45.92
2023-04-15T08:23:53.235Z,44.20
2023-04-15T08:26:23.146Z,45.05
2023-04-15T08:28:51.750Z,46.10
2023-04-15T08:31:21.896Z,45.00
2023-04-15T08:33:52.036Z,44.30
2023-04-15T08:36:21.150Z,45.07
2023-04-15T08:38:49.540Z,44.53
2023-04-15T08:41:26.124Z,44.13
2023-04-15T08:43:58.374Z,41.93
2023-04-15T08:46:27.769Z,43.13
2023-04-15T08:48:59.864Z,43.37
2023-04-15T08:51:30.516Z,42.90
2023-04-15T08:53:59.233Z,44.65
2023-04-15T08:56:32.798Z,41.47
2023-04-15T08:59:01.951Z,42.27
2023-04-15T09:01:30.793Z,38.07
2023-04-15T09:04:00.613Z,44.47
2023-04-15T09:06:29.046Z,42.17
2023-04-15T09:08:57.891Z,43.23
2023-04-15T09:11:27.129Z,42.93
2023-04-15T09:13:58.124Z,43.22
2023-04-15T09:16:27.351Z,41.28
2023-04-15T09:18:55.763Z,41.63
2023-04-15T09:21:25.612Z,43.80
2023-04-15T09:23:59.481Z,43.03
2023-04-15T09:26:35.785Z,42.47
2023-04-15T09:29:09.138Z,44.83
2023-04-15T09:31:38.089Z,43.17
2023-04-15T09:34:06.958Z,43.47
2023-04-15T09:36:54.292Z,42.97
2023-04-15T09:39:22.905Z,42.97
2023-04-15T09:42:08.109Z,43.63
2023-04-15T09:44:38.604Z,43.08
2023-04-15T09:47:08.077Z,40.53
2023-04-15T09:49:36.494Z,40.78
2023-04-15T09:52:06.560Z,42.05
2023-04-15T09:54:37.833Z,42.13
2023-04-15T09:57:12.174Z,42.42
2023-04-15T09:59:41.893Z,41.75
2023-04-15T10:02:11.930Z,40.45
2023-04-15T10:04:43.087Z,39.65
2023-04-15T10:07:13.481Z,39.83
2023-04-15T10:09:41.997Z,38.20
2023-04-15T10:12:11.238Z,39.03
2023-04-15T10:14:42.938Z,37.03
2023-04-15T10:17:13.658Z,36.97
2023-04-15T10:19:42.830Z,36.58
2023-04-15T10:22:11.624Z,36.20
2023-04-15T10:24:41.641Z,34.22
2023-04-15T10:27:11.220Z,33.08
2023-04-15T10:29:41.686Z,33.88
2023-04-15T10:32:12.641Z,32.35
2023-04-15T10:34:41.926Z,33.55
2023-04-15T10:37:12.077Z,32.50
2023-04-15T10:39:44.270Z,32.67
2023-04-15T10:42:15.222Z,30.67
2023-04-15T10:44:47.000Z,30.50
2023-04-15T10:47:19.006Z,29.42
2023-04-15T10:49:50.364Z,28.65
2023-04-15T10:52:24.441Z,27.60
2023-04-15T10:55:05.328Z,26.58
2023-04-15T10:57:39.162Z,27.48
2023-04-15T11:00:17.955Z,25.98
2023-04-15T11:02:49.125Z,25.88
2023-04-15T11:05:19.017Z,23.50
2023-04-15T11:07:57.020Z,24.20
2023-04-15T11:10:56.586Z,23.52
2023-04-15T11:13:31.382Z,22.88
2023-04-15T11:16:04.983Z,22.00
2023-04-15T11:18:35.377Z,21.58
2023-04-15T11:21:06.936Z,19.55
2023-04-15T11:23:39.661Z,18.63
2023-04-15T11:26:12.158Z,17.88
2023-04-15T11:28:42.385Z,17.48
2023-04-15T11:31:14.588Z,16.25
2023-04-15T11:33:56.337Z,14.73
2023-04-15T11:36:28.281Z,15.05
2023-04-15T11:38:58.673Z,14.90
2023-04-15T11:41:27.455Z,14.88
2023-04-15T11:43:56.054Z,13.48
2023-04-15T11:46:31.700Z,13.98
2023-04-15T11:49:00.318Z,14.13
2023-04-15T11:51:34.813Z,13.32
2023-04-15T11:54:03.607Z,12.50
2023-04-15T11:56:32.225Z,13.32
2023-04-15T11:59:01.089Z,12.63
2023-04-15T12:01:35.106Z,12.05
2023-04-15T12:04:04.645Z,13.20
2023-04-15T12:06:36.781Z,12.55
2023-04-15T12:09:13.223Z,12.32
2023-04-15T12:11:44.852Z,12.63
2023-04-15T12:14:22.330Z,12.43
2023-04-15T12:16:54.845Z,13.07
2023-04-15T12:19:29.304Z,13.27
2023-04-15T12:22:01.209Z,13.38
2023-04-15T12:24:33.199Z,13.98
2023-04-15T12:27:04.866Z,14.20
2023-04-15T12:29:34.279Z,13.10
2023-04-15T12:32:10.393Z,12.80
2023-04-15T12:34:41.211Z,12.68
2023-04-15T12:37:11.789Z,12.70
2023-04-15T12:39:42.319Z,12.88
2023-04-15T12:42:11.852Z,12.57
2023-04-15T12:44:40.960Z,12.70
2023-04-15T12:47:12.434Z,13.05
2023-04-15T12:49:41.456Z,12.82
2023-04-15T12:52:09.960Z,12.75
2023-04-15T12:54:38.375Z,12.95
2023-04-15T12:57:07.694Z,13.43
2023-04-15T12:59:36.412Z,12.82
2023-04-15T13:02:05.302Z,14.35
2023-04-15T13:04:35.325Z,12.68
2023-04-15T13:07:04.177Z,13.40
2023-04-15T13:09:32.531Z,13.25
2023-04-15T13:12:02.977Z,13.05
2023-04-15T13:14:31.528Z,13.00
2023-04-15T13:17:00.615Z,14.23
2023-04-15T13:19:28.905Z,14.07
2023-04-15T13:21:58.625Z,14.02
2023-04-15T13:24:27.020Z,12.75
2023-04-15T13:26:59.110Z,13.13
2023-04-15T13:29:27.623Z,11.40
2023-04-15T13:31:56.044Z,11.80
2023-04-15T13:34:24.621Z,11.35
2023-04-15T13:36:52.896Z,11.82
2023-04-15T13:39:23.240Z,12.75
2023-04-15T13:41:51.550Z,12.50
2023-04-15T13:44:22.113Z,11.98
2023-04-15T13:46:50.663Z,13.68
2023-04-15T13:49:19.134Z,12.88
2023-04-15T13:51:47.749Z,12.20
2023-04-15T13:54:16.110Z,11.13
2023-04-15T13:56:45.781Z,10.90
2023-04-15T13:59:14.733Z,11.07
2023-04-15T14:01:43.832Z,10.00
2023-04-15T14:04:12.572Z,11.13
2023-04-15T14:06:41.080Z,10.38
2023-04-15T14:09:09.425Z,10.07
2023-04-15T14:11:40.735Z,10.18
2023-04-15T14:14:10.392Z,10.57
2023-04-15T14:16:38.796Z,11.32
2023-04-15T14:19:07.667Z,11.15
2023-04-15T14:21:36.154Z,10.13
2023-04-15T14:24:04.722Z,10.82
2023-04-15T14:26:33.077Z,10.05
2023-04-15T14:29:01.592Z,10.02
2023-04-15T14:31:31.292Z,10.43
2023-04-15T14:33:59.651Z,10.73
2023-04-15T14:36:28.548Z,12.20
2023-04-15T14:38:56.955Z,11.43
2023-04-15T14:41:25.280Z,11.20
2023-04-15T14:43:53.827Z,10.35
2023-04-15T14:46:22.357Z,10.45
2023-04-15T14:48:52.359Z,10.27
2023-04-15T14:51:20.960Z,10.07
2023-04-15T14:53:49.425Z,11.02
2023-04-15T14:56:17.752Z,10.90
2023-04-15T14:58:46.095Z,10.77
2023-04-15T15:01:14.615Z,11.05
2023-04-15T15:03:43.672Z,11.00
2023-04-15T15:06:13.491Z,10.93
2023-04-15T15:08:41.823Z,11.05
2023-04-15T15:11:10.186Z,11.88
2023-04-15T15:13:38.626Z,10.32
2023-04-15T15:16:07.808Z,11.55
2023-04-15T15:18:37.116Z,11.35
2023-04-15T15:21:05.804Z,11.20
2023-04-15T15:23:35.561Z,10.25
2023-04-15T15:26:04.367Z,11.40
2023-04-15T15:28:32.860Z,10.73
2023-04-15T15:31:01.222Z,10.85
2023-04-15T15:33:30.325Z,11.20
2023-04-15T15:35:59.514Z,11.02
2023-04-15T15:38:28.776Z,11.73
2023-04-15T15:40:58.475Z,10.90
2023-04-15T15:43:26.859Z,10.77
2023-04-15T15:45:56.914Z,10.85
2023-04-15T15:48:26.728Z,11.95
2023-04-15T15:50:55.330Z,12.10
2023-04-15T15:53:25.715Z,12.13
2023-04-15T15:55:54.307Z,13.38
2023-04-15T15:58:23.992Z,11.73
2023-04-15T16:00:52.380Z,11.73
2023-04-15T16:03:20.923Z,10.95
2023-04-15T16:05:49.608Z,11.50
2023-04-15T16:08:18.221Z,11.30
2023-04-15T16:10:46.662Z,12.23
2023-04-15T16:13:15.079Z,12.07
2023-04-15T16:15:44.688Z,12.50
2023-04-15T16:18:13.008Z,13.20
2023-04-15T16:20:41.478Z,13.00
2023-04-15T16:23:14.765Z,12.27
2023-04-15T16:25:45.266Z,12.98
2023-04-15T16:28:25.633Z,13.75
2023-04-15T16:30:57.440Z,13.75
2023-04-15T16:33:25.974Z,13.75
2023-04-15T16:35:54.453Z,14.13
2023-04-15T16:38:22.785Z,14.55
2023-04-15T16:40:51.423Z,14.38
2023-04-15T16:43:19.985Z,14.68
2023-04-15T16:45:50.908Z,15.32
2023-04-15T16:48:22.163Z,16.05
2023-04-15T16:50:50.608Z,15.85
2023-04-15T16:53:19.502Z,15.13
2023-04-15T16:55:50.076Z,15.23
2023-04-15T16:58:22.472Z,16.65
2023-04-15T17:00:52.056Z,16.13
2023-04-15T17:03:21.963Z,16.40
2023-04-15T17:05:50.344Z,17.10
2023-04-15T17:08:18.708Z,16.90
2023-04-15T17:10:47.151Z,16.67
2023-04-15T17:13:15.433Z,17.23
2023-04-15T17:15:43.831Z,17.48
2023-04-15T17:18:28.475Z,17.63
2023-04-15T17:21:08.805Z,18.23
2023-04-15T17:23:39.445Z,17.15
2023-04-15T17:26:08.022Z,18.67
2023-04-15T17:28:36.522Z,18.95
2023-04-15T17:31:08.356Z,17.83
2023-04-15T17:34:09.990Z,17.58
2023-04-15T17:36:59.551Z,17.08
2023-04-15T17:39:47.798Z,19.15
2023-04-15T17:42:36.029Z,17.95
2023-04-15T17:45:24.339Z,18.92
2023-04-15T17:48:14.059Z,18.77
2023-04-15T17:51:03.877Z,19.83
2023-04-15T17:53:52.124Z,19.67
2023-04-15T17:56:40.692Z,19.10
2023-04-15T17:59:29.159Z,18.85
2023-04-15T18:02:17.661Z,19.52
2023-04-15T18:05:07.447Z,20.30
2023-04-15T18:07:57.342Z,18.17
2023-04-15T18:10:45.603Z,20.13
2023-04-15T18:13:33.834Z,20.08
2023-04-15T18:16:22.376Z,21.00
2023-04-15T18:19:12.033Z,19.67
2023-04-15T18:21:40.399Z,20.63
2023-04-15T18:24:10.113Z,21.48
2023-04-15T18:26:38.629Z,21.20
2023-04-15T18:29:07.142Z,21.25
2023-04-15T18:31:35.465Z,21.88
2023-04-15T18:34:07.224Z,21.50
2023-04-15T18:36:35.781Z,20.48
2023-04-15T18:39:06.517Z,21.63
2023-04-15T18:41:36.433Z,22.60
2023-04-15T18:44:04.833Z,21.73
2023-04-15T18:46:33.363Z,21.48
2023-04-15T18:49:02.203Z,20.92
2023-04-15T18:51:30.815Z,22.17
2023-04-15T18:53:59.500Z,20.75
2023-04-15T18:56:27.897Z,20.08
2023-04-15T18:59:09.992Z,20.58
2023-04-15T19:01:45.914Z,20.80
2023-04-15T19:04:14.271Z,22.48
2023-04-15T19:06:42.585Z,20.60
2023-04-15T19:09:10.906Z,24.50
2023-04-15T19:11:39.452Z,21.75
2023-04-15T19:14:09.130Z,22.08
2023-04-15T19:16:37.484Z,20.30
2023-04-15T19:19:06.610Z,20.02
2023-04-15T19:21:35.232Z,21.30
2023-04-15T19:24:03.936Z,19.65
2023-04-15T19:26:32.420Z,19.92
2023-04-15T19:29:00.759Z,21.25
2023-04-15T19:31:30.480Z,20.42
2023-04-15T19:33:58.825Z,19.67
2023-04-15T19:36:28.384Z,19.92
2023-04-15T19:38:56.821Z,20.75
2023-04-15T19:41:25.340Z,18.90
2023-04-15T19:43:53.942Z,20.58
2023-04-15T19:46:22.413Z,18.95
2023-04-15T19:48:53.121Z,19.52
2023-04-15T19:51:21.453Z,20.00
2023-04-15T19:53:50.574Z,20.58
2023-04-15T19:56:18.949Z,18.98
2023-04-15T19:58:52.559Z,20.33
2023-04-15T20:01:21.484Z,20.92
2023-04-15T20:03:54.017Z,19.70
2023-04-15T20:06:22.675Z,18.75
2023-04-15T20:08:51.729Z,19.50
2023-04-15T20:12:48.058Z,18.75
2023-04-15T20:14:17.561Z,18.50
2023-04-15T20:16:46.021Z,19.23
2023-04-15T20:19:15.871Z,19.20
2023-04-15T20:21:45.503Z,19.58
2023-04-15T20:24:17.816Z,19.70
2023-04-15T20:26:46.126Z,20.00
2023-04-15T20:29:15.022Z,19.38
2023-04-15T20:31:43.369Z,18.67
2023-04-15T20:34:12.314Z,18.75
2023-04-15T20:36:42.209Z,19.77
2023-04-15T20:39:10.470Z,19.83
2023-04-15T20:41:38.932Z,18.70
2023-04-15T20:44:07.256Z,18.48
2023-04-15T20:46:35.609Z,20.00
2023-04-15T20:49:04.385Z,19.70
2023-04-15T20:51:37.420Z,18.80
2023-04-15T20:54:07.996Z,19.33
2023-04-15T20:56:36.341Z,20.05
2023-04-15T20:59:05.130Z,19.37
2023-04-15T21:01:33.780Z,20.13
2023-04-15T21:04:02.327Z,19.88
2023-04-15T21:06:30.827Z,20.00
2023-04-15T21:08:59.217Z,17.95
2023-04-15T21:14:09.165Z,20.58
2023-04-15T21:16:37.569Z,20.83
2023-04-15T21:19:06.123Z,21.17
2023-04-15T21:21:34.719Z,20.53
2023-04-15T21:24:03.544Z,20.07
2023-04-15T21:26:33.436Z,20.08
2023-04-15T21:29:01.821Z,20.90
2023-04-15T21:31:30.427Z,21.25
2023-04-15T21:33:58.932Z,21.20
2023-04-15T21:36:28.064Z,22.40
2023-04-15T21:38:56.521Z,21.23
2023-04-15T21:41:24.902Z,21.17
2023-04-15T21:43:54.853Z,20.90
2023-04-15T21:46:25.566Z,22.77
2023-04-15T21:49:01.731Z,21.53
2023-04-15T21:51:31.391Z,20.87
2023-04-15T21:53:59.942Z,21.70
2023-04-15T21:56:29.676Z,21.20
2023-04-15T21:58:59.609Z,20.80
2023-04-15T22:01:28.301Z,20.60
2023-04-15T22:03:58.318Z,20.67
2023-04-15T22:06:27.149Z,20.73
2023-04-15T22:08:57.839Z,21.33
2023-04-15T22:11:28.161Z,21.03
2023-04-15T22:13:59.556Z,21.60
2023-04-15T22:16:28.907Z,21.60
2023-04-15T22:18:57.648Z,21.37
2023-04-15T22:21:26.698Z,21.23
2023-04-15T22:24:32.449Z,22.27
2023-04-15T22:26:43.679Z,21.70
2023-04-15T22:29:13.541Z,21.50
2023-04-15T22:31:41.976Z,22.53
2023-04-15T22:34:10.586Z,21.83
2023-04-15T22:36:40.178Z,21.58
2023-04-15T22:39:08.625Z,22.05
2023-04-15T22:41:37.036Z,21.83
2023-04-15T22:44:05.479Z,22.73
2023-04-15T22:46:35.226Z,21.87
2023-04-15T22:49:03.963Z,22.40
2023-04-15T22:51:33.451Z,22.73
2023-04-15T22:54:01.909Z,21.03
2023-04-15T22:56:30.398Z,21.87
2023-04-15T22:58:58.798Z,22.00
2023-04-15T23:01:27.270Z,22.70
2023-04-15T23:04:05.275Z,22.43
2023-04-15T23:06:36.973Z,22.40
2023-04-15T23:09:05.511Z,22.23
2023-04-15T23:11:33.981Z,21.93
2023-04-15T23:14:02.836Z,22.80
2023-04-15T23:16:31.441Z,22.17
2023-04-15T23:19:01.307Z,23.37
2023-04-15T23:21:29.674Z,22.57
2023-04-15T23:23:57.990Z,21.67
2023-04-15T23:26:27.366Z,24.37
2023-04-15T23:28:56.784Z,20.77
2023-04-15T23:31:25.138Z,21.53
2023-04-15T23:33:54.534Z,23.07
2023-04-15T23:36:24.358Z,20.63
2023-04-15T23:38:52.787Z,19.93
2023-04-15T23:41:21.409Z,22.20
2023-04-15T23:43:49.828Z,23.42
2023-04-15T23:46:18.300Z,21.73
2023-04-15T23:48:47.793Z,22.60
2023-04-15T23:51:16.428Z,22.50
2023-04-15T23:53:47.343Z,21.50
2023-04-15T23:56:15.699Z,21.73
2023-04-15T23:58:44.039Z,20.50
